Time;durP1;ratioP1;P1;durP2;ratioP2;P2;SDS_P1;SDS_P2;PMS_P1;PMS_P2;Temp;Humidity;BMP_temperature;BMP_pressure;BME280_temperature;BME280_humidity;BME280_pressure;Samples;Min_cycle;Max_cycle;Signal;HPM_P1;HPM_P2
2023/09/14 00:00:31;;;;;;;2.85;0.40;;;14.10;99.90;;;;;;4939291;29;20061;-82
2023/09/14 00:02:58;;;;;;;2.40;0.30;;;14.10;99.90;;;;;;4941827;29;20047;-81
2023/09/14 00:05:23;;;;;;;2.53;0.40;;;14.20;99.90;;;;;;4942636;29;20042;-79
2023/09/14 00:07:49;;;;;;;3.13;0.32;;;14.10;99.90;;;;;;4946150;29;20035;-79
2023/09/14 00:10:15;;;;;;;1.85;0.40;;;14.10;99.90;;;;;;4946007;29;20020;-83
2023/09/14 00:12:41;;;;;;;1.83;0.30;;;14.10;99.90;;;;;;4929443;28;20057;-79
2023/09/14 00:15:07;;;;;;;1.27;0.32;;;14.10;99.90;;;;;;4930922;29;20471;-79
2023/09/14 00:17:32;;;;;;;3.95;0.30;;;14.10;99.90;;;;;;4944198;28;20541;-80
2023/09/14 00:20:00;;;;;;;2.63;0.30;;;14.10;99.90;;;;;;4941564;29;20063;-81
2023/09/14 00:22:26;;;;;;;2.97;0.30;;;14.10;99.90;;;;;;4939009;29;20035;-79
2023/09/14 00:24:52;;;;;;;1.67;0.30;;;14.20;99.90;;;;;;4942587;29;20027;-79
2023/09/14 00:27:18;;;;;;;0.80;0.20;;;14.10;99.90;;;;;;4944183;29;20106;-82
2023/09/14 00:29:46;;;;;;;1.55;0.30;;;14.20;99.90;;;;;;4926772;29;20122;-79
2023/09/14 00:32:11;;;;;;;2.88;0.30;;;14.10;99.90;;;;;;4943404;29;20031;-78
2023/09/14 00:34:37;;;;;;;3.00;0.30;;;14.10;99.90;;;;;;4943935;29;20399;-83
2023/09/14 00:37:04;;;;;;;2.38;0.30;;;14.10;99.90;;;;;;4943194;29;20500;-82
2023/09/14 00:39:30;;;;;;;1.80;0.40;;;14.10;99.90;;;;;;4944422;28;20039;-79
2023/09/14 00:41:56;;;;;;;2.22;0.45;;;14.10;99.90;;;;;;4926090;29;20134;-82
2023/09/14 00:44:22;;;;;;;2.25;0.40;;;14.10;99.90;;;;;;4942836;29;20023;-79
2023/09/14 00:46:48;;;;;;;1.65;0.40;;;14.10;99.90;;;;;;4926045;28;20020;-82
2023/09/14 00:49:14;;;;;;;0.95;0.30;;;14.10;99.90;;;;;;4925000;29;20174;-79
2023/09/14 00:51:40;;;;;;;1.13;0.38;;;14.10;99.90;;;;;;4938143;29;20032;-78
2023/09/14 00:54:06;;;;;;;2.97;0.40;;;14.10;99.90;;;;;;4935998;29;20462;-81
2023/09/14 00:56:32;;;;;;;1.83;0.30;;;14.10;99.90;;;;;;4943440;29;20119;-80
2023/09/14 00:59:00;;;;;;;1.38;0.38;;;14.10;99.90;;;;;;4942769;28;20110;-79
2023/09/14 01:01:26;;;;;;;3.15;0.40;;;14.10;99.90;;;;;;4943227;28;20602;-82
2023/09/14 01:03:53;;;;;;;1.90;0.35;;;14.10;99.90;;;;;;4942258;29;20020;-84
2023/09/14 01:06:20;;;;;;;1.17;0.30;;;14.10;99.90;;;;;;4931163;29;20031;-83
2023/09/14 01:08:45;;;;;;;3.03;0.30;;;14.10;99.90;;;;;;4942843;29;20023;-83
2023/09/14 01:11:11;;;;;;;2.05;0.50;;;14.10;99.90;;;;;;4930488;29;20485;-79
2023/09/14 01:13:51;;;;;;;2.15;0.55;;;14.00;99.90;;;;;;4943340;29;20411;-82
2023/09/14 01:16:25;;;;;;;2.55;0.30;;;14.00;99.90;;;;;;4914486;28;20040;-86
2023/09/14 01:19:28;;;;;;;1.67;0.50;;;14.00;99.90;;;;;;4924639;29;20031;-80
2023/09/14 01:22:28;;;;;;;1.23;0.55;;;14.00;99.90;;;;;;4920775;28;20054;-79
2023/09/14 01:25:04;;;;;;;1.98;0.40;;;14.00;99.90;;;;;;4921626;28;20031;-81
2023/09/14 01:27:31;;;;;;;1.88;0.40;;;14.00;99.90;;;;;;4941390;28;20028;-85
2023/09/14 01:29:57;;;;;;;1.33;0.40;;;14.00;99.90;;;;;;4941123;29;20404;-82
2023/09/14 01:32:26;;;;;;;3.40;0.40;;;13.90;99.90;;;;;;4943558;29;20041;-84
2023/09/14 01:34:52;;;;;;;1.58;0.35;;;13.90;99.90;;;;;;4942116;28;20174;-79
2023/09/14 01:37:18;;;;;;;1.65;0.50;;;14.00;99.90;;;;;;4926339;29;20024;-81
2023/09/14 01:39:45;;;;;;;1.30;0.40;;;13.90;99.90;;;;;;4927871;29;20024;-79
2023/09/14 01:42:12;;;;;;;1.10;0.30;;;14.00;99.90;;;;;;4942822;28;20051;-80
2023/09/14 01:44:38;;;;;;;2.40;0.40;;;14.00;99.90;;;;;;4941506;29;20168;-79
2023/09/14 01:47:04;;;;;;;3.72;0.43;;;14.00;99.90;;;;;;4943650;29;20431;-81
2023/09/14 01:49:30;;;;;;;1.50;0.40;;;13.90;99.90;;;;;;4926577;29;20028;-79
2023/09/14 01:51:55;;;;;;;1.30;0.40;;;13.90;99.90;;;;;;4926852;29;20399;-83
2023/09/14 01:54:21;;;;;;;3.13;0.50;;;14.00;99.90;;;;;;4942990;29;20031;-80
2023/09/14 01:56:47;;;;;;;2.10;0.40;;;14.00;99.90;;;;;;4942277;29;20042;-80
2023/09/14 01:59:13;;;;;;;1.30;0.52;;;13.90;99.90;;;;;;4924585;29;20031;-79
2023/09/14 02:01:38;;;;;;;1.10;0.30;;;13.90;99.90;;;;;;4942211;29;20039;-80
2023/09/14 02:04:04;;;;;;;2.38;0.57;;;13.90;99.90;;;;;;4941067;29;20153;-79
2023/09/14 02:06:30;;;;;;;2.53;0.43;;;13.90;99.90;;;;;;4921906;29;20031;-80
2023/09/14 02:08:56;;;;;;;1.67;0.50;;;13.90;99.90;;;;;;4942611;29;20326;-81
2023/09/14 02:11:21;;;;;;;1.20;0.40;;;13.90;99.90;;;;;;4943241;29;20061;-80
2023/09/14 02:13:47;;;;;;;1.88;0.40;;;13.90;99.90;;;;;;4924705;28;20035;-80
2023/09/14 02:16:13;;;;;;;4.88;0.50;;;13.90;99.90;;;;;;4921201;29;20442;-81
2023/09/14 02:18:39;;;;;;;2.97;0.50;;;13.90;99.90;;;;;;4943232;29;20459;-81
2023/09/14 02:21:04;;;;;;;2.22;0.40;;;13.90;99.90;;;;;;4923600;29;20028;-79
2023/09/14 02:23:30;;;;;;;3.05;0.45;;;13.90;99.90;;;;;;4941755;29;20054;-80
2023/09/14 02:25:55;;;;;;;1.15;0.40;;;13.90;99.90;;;;;;4924595;29;20028;-83
2023/09/14 02:28:21;;;;;;;2.63;0.50;;;13.90;99.90;;;;;;4942952;29;20042;-80
2023/09/14 02:30:48;;;;;;;2.97;0.40;;;13.90;99.90;;;;;;4941013;28;20476;-80
2023/09/14 02:33:14;;;;;;;1.92;0.40;;;13.90;99.90;;;;;;4929394;29;20189;-80
2023/09/14 02:35:40;;;;;;;1.60;0.40;;;13.90;99.90;;;;;;4941063;29;20114;-79
2023/09/14 02:38:07;;;;;;;2.25;0.47;;;13.90;99.90;;;;;;4928735;29;20032;-81
2023/09/14 02:40:33;;;;;;;1.73;0.40;;;13.80;99.90;;;;;;4943579;28;20024;-83
2023/09/14 02:42:59;;;;;;;1.60;0.32;;;13.90;99.90;;;;;;4944940;29;20135;-80
2023/09/14 02:45:25;;;;;;;2.20;0.45;;;13.80;99.90;;;;;;4945262;29;20123;-80
2023/09/14 02:47:51;;;;;;;1.55;0.40;;;13.90;99.90;;;;;;4932872;29;20035;-79
2023/09/14 02:50:16;;;;;;;3.53;0.40;;;13.80;99.90;;;;;;4941984;29;20040;-80
2023/09/14 02:52:42;;;;;;;1.98;0.40;;;13.80;99.90;;;;;;4926330;29;20423;-80
2023/09/14 02:55:08;;;;;;;1.65;0.40;;;13.80;99.90;;;;;;4928676;28;20031;-80
2023/09/14 02:57:35;;;;;;;1.90;0.40;;;13.70;99.90;;;;;;4929336;29;20020;-79
2023/09/14 03:00:00;;;;;;;3.25;0.50;;;13.70;99.90;;;;;;4944109;29;20034;-81
2023/09/14 03:02:27;;;;;;;3.28;0.40;;;13.60;99.90;;;;;;4943682;28;21880;-79
2023/09/14 03:04:52;;;;;;;3.30;0.50;;;13.60;99.90;;;;;;4946100;29;20492;-83
2023/09/14 03:07:18;;;;;;;1.27;0.40;;;13.60;99.90;;;;;;4928310;29;20035;-81
2023/09/14 03:09:44;;;;;;;1.80;0.43;;;13.50;99.90;;;;;;4928435;29;20055;-81
2023/09/14 03:12:10;;;;;;;3.05;0.70;;;13.50;99.90;;;;;;4946077;29;20054;-79
2023/09/14 03:14:35;;;;;;;1.23;0.30;;;13.40;99.90;;;;;;4946505;29;20057;-80
2023/09/14 03:17:01;;;;;;;2.80;0.50;;;13.30;99.90;;;;;;4927390;29;20035;-79
2023/09/14 03:19:28;;;;;;;2.95;0.40;;;13.20;99.90;;;;;;4925060;29;20031;-82
2023/09/14 03:21:54;;;;;;;1.77;0.40;;;13.10;99.90;;;;;;4929754;29;20047;-79
2023/09/14 03:24:20;;;;;;;2.83;0.40;;;12.90;99.90;;;;;;4928213;29;20066;-79
2023/09/14 03:26:46;;;;;;;2.75;0.50;;;12.90;99.90;;;;;;4945428;29;20027;-80
2023/09/14 03:29:12;;;;;;;2.30;0.40;;;12.80;99.90;;;;;;4937950;29;20035;-79
2023/09/14 03:31:38;;;;;;;2.58;0.55;;;12.80;99.90;;;;;;4937292;29;20027;-79
2023/09/14 03:34:07;;;;;;;2.17;0.43;;;12.80;99.90;;;;;;4942751;29;20035;-79
2023/09/14 03:36:33;;;;;;;1.55;0.50;;;12.70;99.90;;;;;;4913161;28;20032;-80
2023/09/14 03:38:59;;;;;;;3.58;0.70;;;12.60;99.90;;;;;;4944429;29;20554;-81
2023/09/14 03:41:30;;;;;;;1.55;0.50;;;12.50;99.90;;;;;;4943665;29;20430;-79
2023/09/14 03:43:56;;;;;;;3.05;0.45;;;12.50;99.90;;;;;;4944044;28;20051;-79
2023/09/14 03:46:23;;;;;;;1.63;0.45;;;12.40;99.90;;;;;;4944961;29;20028;-79
2023/09/14 03:48:48;;;;;;;1.65;0.40;;;12.40;99.90;;;;;;4943341;29;20411;-80
2023/09/14 03:51:14;;;;;;;1.45;0.40;;;12.30;99.90;;;;;;4930289;29;20082;-79
2023/09/14 03:53:41;;;;;;;1.35;0.50;;;12.20;99.90;;;;;;4945077;28;20067;-80
2023/09/14 03:56:07;;;;;;;3.47;0.50;;;12.20;99.90;;;;;;4937358;28;20027;-80
2023/09/14 03:58:33;;;;;;;1.60;0.40;;;12.20;99.90;;;;;;4926423;29;20032;-81
2023/09/14 04:00:59;;;;;;;2.45;0.50;;;12.20;99.90;;;;;;4943850;29;20038;-80
2023/09/14 04:03:25;;;;;;;2.80;0.50;;;12.10;99.90;;;;;;4926995;29;20034;-81
2023/09/14 04:05:51;;;;;;;1.80;0.50;;;12.10;99.90;;;;;;4926127;29;20028;-85
2023/09/14 04:08:17;;;;;;;2.85;0.50;;;12.10;99.90;;;;;;4937211;28;20399;-80
2023/09/14 04:10:43;;;;;;;1.52;0.50;;;12.10;99.90;;;;;;4943180;29;21175;-80
2023/09/14 04:13:31;;;;;;;1.50;0.40;;;12.10;99.90;;;;;;4940932;29;20036;-80
2023/09/14 04:16:03;;;;;;;1.50;0.50;;;12.10;99.90;;;;;;4920237;28;20046;-81
2023/09/14 04:18:34;;;;;;;1.85;0.50;;;12.00;99.90;;;;;;4942192;28;20035;-81
2023/09/14 04:21:01;;;;;;;2.13;0.60;;;11.90;99.90;;;;;;4942203;29;20074;-81
2023/09/14 04:23:27;;;;;;;1.60;0.50;;;11.90;99.90;;;;;;4943211;29;20056;-79
2023/09/14 04:25:53;;;;;;;2.50;0.50;;;11.90;99.90;;;;;;4921843;29;20032;-81
2023/09/14 04:28:21;;;;;;;3.22;0.60;;;11.80;99.90;;;;;;4938251;28;20027;-80
2023/09/14 04:30:49;;;;;;;1.52;0.50;;;11.80;99.90;;;;;;4931321;29;20518;-80
2023/09/14 04:33:17;;;;;;;2.65;0.60;;;11.80;99.90;;;;;;4928818;29;20042;-79
2023/09/14 04:35:43;;;;;;;2.45;0.60;;;11.80;99.90;;;;;;4944343;29;20085;-79
2023/09/14 04:38:09;;;;;;;1.52;0.60;;;11.80;99.90;;;;;;4942792;29;20441;-80
2023/09/14 04:40:40;;;;;;;2.53;0.43;;;11.70;99.90;;;;;;4942722;28;20089;-81
2023/09/14 04:43:06;;;;;;;2.78;0.40;;;11.60;99.90;;;;;;4929752;28;20075;-80
2023/09/14 04:45:33;;;;;;;2.58;0.40;;;11.70;99.90;;;;;;4925545;29;20116;-80
2023/09/14 04:47:59;;;;;;;1.80;0.40;;;11.70;99.90;;;;;;4930775;28;20056;-79
2023/09/14 04:50:26;;;;;;;2.47;0.43;;;11.70;99.90;;;;;;4929863;29;20085;-79
2023/09/14 04:52:51;;;;;;;1.95;0.45;;;11.60;99.90;;;;;;4938637;29;20043;-79
2023/09/14 04:55:17;;;;;;;2.05;0.40;;;11.70;99.90;;;;;;4927145;29;20372;-79
2023/09/14 04:57:43;;;;;;;2.45;0.40;;;11.70;99.90;;;;;;4926016;29;20032;-80
2023/09/14 05:00:09;;;;;;;2.00;0.45;;;11.70;99.90;;;;;;4930326;29;20039;-79
2023/09/14 05:02:37;;;;;;;1.83;0.50;;;11.60;99.90;;;;;;4919542;29;20081;-79
2023/09/14 05:05:03;;;;;;;3.50;0.52;;;11.60;99.90;;;;;;4938757;28;20093;-79
2023/09/14 05:07:29;;;;;;;3.38;0.40;;;11.60;99.90;;;;;;4928311;29;20027;-79
2023/09/14 05:09:55;;;;;;;3.28;0.50;;;11.50;99.90;;;;;;4910437;28;20558;-79
2023/09/14 05:12:21;;;;;;;2.58;0.50;;;11.50;99.90;;;;;;4924340;29;20023;-80
2023/09/14 05:14:47;;;;;;;1.75;0.50;;;11.50;99.90;;;;;;4919500;29;20388;-79
2023/09/14 05:17:13;;;;;;;1.80;0.60;;;11.50;99.90;;;;;;4931803;28;20031;-79
2023/09/14 05:19:42;;;;;;;1.92;0.50;;;11.50;99.90;;;;;;4923105;28;20039;-82
2023/09/14 05:22:09;;;;;;;3.42;0.45;;;11.50;99.90;;;;;;4913406;28;20445;-79
2023/09/14 05:24:35;;;;;;;0.95;0.40;;;11.50;99.90;;;;;;5009870;28;20058;-81
2023/09/14 05:27:01;;;;;;;1.48;0.50;;;11.50;99.90;;;;;;4941990;29;20484;-79
2023/09/14 05:29:26;;;;;;;2.25;0.50;;;11.50;99.90;;;;;;4943653;29;20046;-80
2023/09/14 05:31:52;;;;;;;1.40;0.50;;;11.50;99.90;;;;;;4941007;29;20030;-79
2023/09/14 05:34:18;;;;;;;2.22;0.50;;;11.50;99.90;;;;;;4941871;29;20039;-81
2023/09/14 05:36:44;;;;;;;1.65;0.50;;;11.50;99.90;;;;;;4930545;29;20414;-81
2023/09/14 05:39:09;;;;;;;1.95;0.40;;;11.50;99.90;;;;;;4941124;29;20034;-79
2023/09/14 05:41:35;;;;;;;2.80;0.50;;;11.50;99.90;;;;;;4926728;29;20031;-82
2023/09/14 05:44:05;;;;;;;3.22;0.40;;;11.50;99.90;;;;;;4929852;29;20676;-81
2023/09/14 05:46:31;;;;;;;1.63;0.40;;;11.60;99.90;;;;;;4936247;28;20035;-80
2023/09/14 05:48:58;;;;;;;1.77;0.43;;;11.60;99.90;;;;;;4938165;29;20035;-82
2023/09/14 05:51:25;;;;;;;2.35;0.63;;;11.60;99.90;;;;;;4924247;28;20127;-80
2023/09/14 05:53:51;;;;;;;2.72;0.60;;;11.60;99.90;;;;;;4941891;28;20114;-80
2023/09/14 05:56:17;;;;;;;2.10;0.60;;;11.60;99.90;;;;;;4925067;29;20103;-80
2023/09/14 05:58:42;;;;;;;2.88;0.77;;;11.70;99.90;;;;;;4941512;28;20491;-81
2023/09/14 06:01:08;;;;;;;1.63;0.60;;;11.70;99.90;;;;;;4940022;28;20031;-80
2023/09/14 06:03:34;;;;;;;2.08;0.50;;;11.80;99.90;;;;;;4930957;29;20043;-79
2023/09/14 06:06:00;;;;;;;3.92;0.52;;;11.80;99.90;;;;;;4924264;29;20035;-79
2023/09/14 06:08:26;;;;;;;1.40;0.40;;;11.90;99.90;;;;;;4928975;29;20521;-80
2023/09/14 06:10:52;;;;;;;1.75;0.40;;;12.00;99.90;;;;;;4940195;29;20019;-80
2023/09/14 06:13:20;;;;;;;2.53;0.60;;;12.10;99.90;;;;;;4942257;28;20287;-79
2023/09/14 06:15:46;;;;;;;3.38;0.65;;;12.20;99.90;;;;;;4942229;28;20318;-80
2023/09/14 06:18:12;;;;;;;2.05;0.50;;;12.30;99.90;;;;;;4926163;29;20039;-79
2023/09/14 06:20:37;;;;;;;2.22;0.47;;;12.40;99.90;;;;;;4945204;29;20023;-79
2023/09/14 06:23:03;;;;;;;1.67;0.52;;;12.40;99.90;;;;;;4940181;28;20483;-79
2023/09/14 06:25:29;;;;;;;1.42;0.50;;;12.50;99.90;;;;;;4946529;29;20023;-80
2023/09/14 06:27:55;;;;;;;2.40;0.45;;;12.60;99.90;;;;;;4932296;28;20035;-80
2023/09/14 06:30:20;;;;;;;3.22;0.50;;;12.70;99.90;;;;;;4942205;28;20493;-80
2023/09/14 06:32:46;;;;;;;2.35;0.50;;;12.80;99.90;;;;;;4946344;29;20399;-79
2023/09/14 06:35:12;;;;;;;2.67;0.60;;;12.90;99.90;;;;;;4937418;29;20034;-80
2023/09/14 06:37:37;;;;;;;2.22;0.47;;;13.10;99.90;;;;;;4946505;29;20024;-79
2023/09/14 06:40:08;;;;;;;2.30;0.40;;;13.30;99.90;;;;;;4909789;28;20034;-82
2023/09/14 06:42:34;;;;;;;3.00;0.40;;;13.40;99.90;;;;;;4933617;28;20155;-78
2023/09/14 06:45:01;;;;;;;2.75;0.40;;;13.50;99.90;;;;;;4964305;28;20040;-83
2023/09/14 06:47:26;;;;;;;1.73;0.30;;;13.70;99.90;;;;;;4963867;28;20050;-82
2023/09/14 06:49:52;;;;;;;1.58;0.40;;;13.80;99.90;;;;;;4962404;28;20066;-80
2023/09/14 06:52:18;;;;;;;1.75;0.40;;;13.90;99.90;;;;;;4945232;28;20015;-80
2023/09/14 06:54:45;;;;;;;1.67;0.40;;;13.90;99.90;;;;;;4962200;28;20101;-81
2023/09/14 06:57:11;;;;;;;1.83;0.30;;;14.10;99.90;;;;;;4964323;28;20104;-82
2023/09/14 06:59:37;;;;;;;1.63;0.35;;;14.20;99.90;;;;;;4946012;28;20042;-80
2023/09/14 07:02:03;;;;;;;2.92;0.40;;;14.30;99.90;;;;;;4965847;28;22043;-81
2023/09/14 07:04:29;;;;;;;3.45;0.50;;;14.40;99.90;;;;;;4946416;28;20479;-81
2023/09/14 07:06:55;;;;;;;2.55;0.50;;;14.50;99.90;;;;;;4945816;28;20110;-81
2023/09/14 07:09:20;;;;;;;2.63;0.32;;;14.50;99.90;;;;;;4968446;28;20130;-80
2023/09/14 07:11:46;;;;;;;1.10;0.20;;;14.60;99.90;;;;;;4951510;28;20161;-83
2023/09/14 07:14:12;;;;;;;2.00;0.40;;;14.70;99.90;;;;;;4962066;28;20134;-81
2023/09/14 07:16:37;;;;;;;1.25;0.30;;;14.70;99.90;;;;;;4978515;28;20058;-81
2023/09/14 07:19:03;;;;;;;3.28;0.30;;;14.80;99.90;;;;;;4932934;28;20102;-81
2023/09/14 07:21:32;;;;;;;2.85;0.30;;;15.00;99.90;;;;;;4963854;28;20520;-80
2023/09/14 07:23:59;;;;;;;2.15;0.35;;;15.20;99.90;;;;;;4971756;28;20035;-80
2023/09/14 07:26:26;;;;;;;2.53;0.30;;;15.30;99.90;;;;;;4968977;28;20053;-82
2023/09/14 07:28:51;;;;;;;2.28;0.28;;;15.40;99.90;;;;;;4956996;28;20121;-78
2023/09/14 07:31:17;;;;;;;1.65;0.30;;;15.50;99.90;;;;;;4957688;28;20114;-82
2023/09/14 07:33:46;;;;;;;1.95;0.38;;;15.60;99.90;;;;;;4962736;28;20038;-80
2023/09/14 07:36:11;;;;;;;2.72;0.30;;;15.70;99.90;;;;;;4949300;28;20059;-79
2023/09/14 07:38:37;;;;;;;2.78;0.30;;;15.90;99.90;;;;;;4964109;28;20446;-81
2023/09/14 07:41:03;;;;;;;3.28;0.30;;;15.90;99.90;;;;;;4956454;28;20034;-79
2023/09/14 07:43:29;;;;;;;4.30;0.30;;;16.00;99.90;;;;;;4948052;28;20491;-82
2023/09/14 07:45:56;;;;;;;2.60;0.40;;;16.20;99.90;;;;;;4957502;28;20037;-83
2023/09/14 07:48:22;;;;;;;1.15;0.30;;;16.20;99.90;;;;;;4946480;28;20080;-81
2023/09/14 07:50:47;;;;;;;1.70;0.32;;;16.30;99.90;;;;;;4950725;28;20031;-83
2023/09/14 07:53:13;;;;;;;1.38;0.30;;;16.30;99.90;;;;;;4955729;28;20156;-82
2023/09/14 07:55:39;;;;;;;1.52;0.20;;;16.50;99.90;;;;;;4943665;28;20461;-82
2023/09/14 07:58:08;;;;;;;1.95;0.30;;;16.70;99.90;;;;;;4949168;28;20109;-81
2023/09/14 08:00:34;;;;;;;3.03;0.30;;;16.70;99.90;;;;;;4946238;28;20023;-82
2023/09/14 08:03:01;;;;;;;1.33;0.30;;;16.80;99.90;;;;;;4967479;28;20027;-82
2023/09/14 08:05:28;;;;;;;2.58;0.30;;;16.90;99.90;;;;;;4967248;28;20074;-81
2023/09/14 08:07:54;;;;;;;2.85;0.40;;;17.00;99.90;;;;;;4963362;28;20035;-80
2023/09/14 08:10:20;;;;;;;4.70;0.50;;;17.20;99.90;;;;;;4956144;28;20029;-81
2023/09/14 08:12:45;;;;;;;1.65;0.22;;;17.40;99.90;;;;;;4945419;28;20047;-81
2023/09/14 08:15:12;;;;;;;1.83;0.40;;;17.30;99.90;;;;;;4963773;28;20432;-82
2023/09/14 08:17:38;;;;;;;3.88;0.60;;;17.30;99.90;;;;;;4960814;28;20031;-83
2023/09/14 08:20:04;;;;;;;3.58;0.40;;;17.20;99.90;;;;;;4956159;28;20256;-83
2023/09/14 08:22:30;;;;;;;1.45;0.30;;;17.40;99.90;;;;;;4962764;28;20031;-81
2023/09/14 08:25:00;;;;;;;3.28;0.47;;;17.50;99.90;;;;;;4960931;28;20037;-82
2023/09/14 08:27:27;;;;;;;2.58;0.40;;;17.60;99.90;;;;;;4958474;28;20027;-85
2023/09/14 08:29:52;;;;;;;4.15;0.43;;;17.60;99.90;;;;;;4957998;28;20034;-82
2023/09/14 08:32:18;;;;;;;2.80;0.30;;;17.70;99.90;;;;;;4959271;28;20471;-83
2023/09/14 08:34:44;;;;;;;3.13;0.30;;;17.50;99.90;;;;;;4956402;28;20077;-82
2023/09/14 08:37:10;;;;;;;3.60;0.43;;;17.80;99.90;;;;;;4943920;28;20019;-80
2023/09/14 08:39:37;;;;;;;1.67;0.40;;;17.90;99.90;;;;;;4955485;28;20031;-83
2023/09/14 08:42:03;;;;;;;6.05;0.50;;;18.20;99.90;;;;;;4964905;28;20373;-83
2023/09/14 08:44:33;;;;;;;3.75;0.57;;;18.20;99.90;;;;;;4960339;28;20113;-83
2023/09/14 08:47:00;;;;;;;;;;;18.40;99.90;;;;;;4963984;28;20026;-84
2023/09/14 08:49:28;;;;;;;4.85;0.60;;;18.60;99.90;;;;;;4945146;28;19910;-82
2023/09/14 08:51:55;;;;;;;2.45;0.55;;;18.70;99.90;;;;;;4955662;28;20027;-83
2023/09/14 08:54:21;;;;;;;2.08;0.50;;;18.90;99.90;;;;;;4961281;28;20081;-84
2023/09/14 08:56:49;;;;;;;5.63;0.57;;;19.00;99.90;;;;;;4963673;28;20023;-82
2023/09/14 08:59:17;;;;;;;3.83;0.70;;;18.80;99.90;;;;;;4944619;28;20035;-81
2023/09/14 09:01:44;;;;;;;4.25;0.60;;;18.90;99.90;;;;;;4953677;28;20027;-82
2023/09/14 09:04:10;;;;;;;3.40;0.70;;;19.10;99.90;;;;;;4957245;28;20039;-82
2023/09/14 09:06:37;;;;;;;8.05;1.42;;;19.30;99.90;;;;;;4961286;28;20034;-82
2023/09/14 09:09:04;;;;;;;3.45;0.88;;;19.10;99.90;;;;;;4946085;28;20038;-91
2023/09/14 09:11:30;;;;;;;3.25;0.70;;;19.00;99.90;;;;;;4967418;28;20464;-83
2023/09/14 09:13:56;;;;;;;5.20;0.90;;;19.20;99.90;;;;;;4954031;28;20100;-85
2023/09/14 09:16:22;;;;;;;3.85;0.70;;;19.20;99.90;;;;;;4946777;28;20122;-83
2023/09/14 09:19:03;;;;;;;4.32;0.70;;;19.00;99.90;;;;;;4966734;28;20053;-81
2023/09/14 09:21:31;;;;;;;4.15;0.80;;;18.50;99.90;;;;;;4966447;28;20378;-89
2023/09/14 09:23:57;;;;;;;3.03;0.65;;;18.70;99.90;;;;;;4947910;28;20039;-82
2023/09/14 09:26:24;;;;;;;4.03;0.85;;;19.30;99.90;;;;;;4967650;28;20051;-86
2023/09/14 09:28:50;;;;;;;5.65;1.00;;;19.70;99.90;;;;;;4956559;28;20030;-85
2023/09/14 09:31:16;;;;;;;5.88;1.38;;;19.70;99.90;;;;;;4949486;28;20023;-84
2023/09/14 09:33:47;;;;;;;6.45;1.42;;;19.60;99.90;;;;;;4972382;28;20035;-83
2023/09/14 09:36:15;;;;;;;5.88;1.50;;;19.70;99.90;;;;;;4959686;28;20404;-83
2023/09/14 09:38:40;;;;;;;3.15;0.80;;;19.80;99.90;;;;;;4958580;28;20042;-86
2023/09/14 09:41:10;;;;;;;3.83;1.40;;;19.80;99.90;;;;;;4960521;28;20031;-80
2023/09/14 09:43:37;;;;;;;6.03;1.30;;;19.30;99.90;;;;;;4960478;28;20054;-81
2023/09/14 09:46:03;;;;;;;4.15;1.27;;;19.10;99.90;;;;;;4947975;28;20027;-83
2023/09/14 09:48:31;;;;;;;3.25;1.77;;;19.40;99.90;;;;;;4944920;28;20045;-84
2023/09/14 09:50:57;;;;;;;4.47;1.55;;;19.80;99.90;;;;;;4953205;28;20528;-82
2023/09/14 09:53:23;;;;;;;5.43;1.15;;;19.70;99.90;;;;;;4952410;28;20081;-80
2023/09/14 09:55:50;;;;;;;5.38;1.38;;;19.50;99.90;;;;;;4954027;28;20027;-82
2023/09/14 09:58:17;;;;;;;5.38;1.35;;;19.10;99.90;;;;;;4956549;28;20049;-82
2023/09/14 10:00:43;;;;;;;3.13;1.17;;;19.50;99.90;;;;;;4945107;28;20022;-81
2023/09/14 10:03:09;;;;;;;3.78;0.80;;;19.80;99.90;;;;;;4966935;28;20064;-82
2023/09/14 10:05:40;;;;;;;2.20;0.63;;;20.40;99.90;;;;;;4956110;28;20026;-82
2023/09/14 10:08:18;;;;;;;4.00;0.93;;;20.70;99.90;;;;;;4945451;28;20032;-84
2023/09/14 10:10:52;;;;;;;2.20;0.80;;;20.60;99.90;;;;;;4961796;28;20527;-82
2023/09/14 10:13:23;;;;;;;3.75;0.90;;;20.10;99.90;;;;;;4946317;28;20030;-82
2023/09/14 10:15:56;;;;;;;2.90;0.70;;;19.60;99.90;;;;;;4963699;28;20023;-81
2023/09/14 10:18:28;;;;;;;5.03;1.17;;;20.00;99.90;;;;;;4962178;28;20030;-83
2023/09/14 10:20:55;;;;;;;1.67;0.60;;;20.10;99.90;;;;;;4959606;28;20138;-84
2023/09/14 10:23:22;;;;;;;2.72;0.60;;;20.10;99.90;;;;;;4955658;28;20433;-83
2023/09/14 10:25:50;;;;;;;2.08;0.65;;;20.50;99.90;;;;;;4968030;28;20050;-86
2023/09/14 10:28:17;;;;;;;2.95;0.68;;;21.00;99.90;;;;;;4944657;28;20568;-84
2023/09/14 10:30:46;;;;;;;2.28;0.50;;;21.10;99.90;;;;;;4964754;28;20077;-84
2023/09/14 10:33:13;;;;;;;1.73;0.60;;;20.70;99.90;;;;;;4959865;28;20062;-85
2023/09/14 10:35:40;;;;;;;2.13;0.70;;;20.40;99.90;;;;;;4957211;28;20023;-82
2023/09/14 10:38:06;;;;;;;1.50;0.50;;;20.20;99.90;;;;;;4942588;28;20027;-82
2023/09/14 10:40:38;;;;;;;1.88;0.60;;;20.80;99.90;;;;;;4953989;28;20042;-87
2023/09/14 10:43:05;;;;;;;1.92;0.30;;;21.10;99.90;;;;;;4954366;28;20083;-88
2023/09/14 10:45:38;;;;;;;3.85;0.40;;;21.50;99.90;;;;;;4965191;28;20031;-85
2023/09/14 10:48:07;;;;;;;1.23;0.30;;;21.30;99.90;;;;;;4960944;28;20035;-83
2023/09/14 10:50:33;;;;;;;0.90;0.30;;;20.90;99.90;;;;;;4957766;28;20100;-84
2023/09/14 10:53:00;;;;;;;2.90;0.50;;;20.80;99.90;;;;;;4957343;28;20113;-87
2023/09/14 10:55:26;;;;;;;2.60;0.70;;;20.70;99.90;;;;;;4941833;28;20094;-83
2023/09/14 10:57:52;;;;;;;1.92;0.50;;;20.70;99.90;;;;;;4954749;28;20102;-83
2023/09/14 11:00:55;;;;;;;2.65;0.50;;;21.20;99.90;;;;;;4971719;28;20062;-85
2023/09/14 11:03:22;;;;;;;2.20;0.47;;;21.30;99.90;;;;;;4962569;28;20109;-91
2023/09/14 11:05:50;;;;;;;1.67;0.50;;;21.80;99.90;;;;;;4963769;28;20062;-85
2023/09/14 11:08:17;;;;;;;1.92;0.40;;;22.00;99.90;;;;;;4947622;28;20031;-83
2023/09/14 11:10:58;;;;;;;1.92;0.50;;;21.80;99.90;;;;;;4959465;28;20049;-82
2023/09/14 11:13:30;;;;;;;1.17;0.32;;;21.60;99.90;;;;;;4968121;28;20122;-87
2023/09/14 11:16:16;;;;;;;1.50;0.50;;;21.50;99.90;;;;;;4930432;28;20434;-83
2023/09/14 11:18:45;;;;;;;2.15;0.40;;;21.60;99.90;;;;;;4958971;28;20101;-83
2023/09/14 11:21:33;;;;;;;2.75;0.50;;;21.80;99.90;;;;;;4944853;28;20039;-81
2023/09/14 11:24:01;;;;;;;2.03;0.40;;;21.00;99.90;;;;;;4960175;28;20031;-84
2023/09/14 11:26:34;;;;;;;1.27;0.50;;;20.60;99.90;;;;;;4930439;28;20027;-82
2023/09/14 11:29:00;;;;;;;1.45;0.47;;;20.60;99.90;;;;;;4961164;28;20035;-82
2023/09/14 11:31:30;;;;;;;1.40;0.40;;;20.50;99.90;;;;;;4961785;28;20046;-82
2023/09/14 11:33:57;;;;;;;1.40;0.50;;;20.30;99.90;;;;;;4963562;28;20130;-85
2023/09/14 11:36:27;;;;;;;1.52;0.50;;;20.00;99.90;;;;;;4990583;28;20144;-87
2023/09/14 11:38:53;;;;;;;1.70;0.50;;;20.00;99.90;;;;;;4964495;28;20034;-84
2023/09/14 11:41:40;;;;;;;2.50;0.40;;;20.60;99.90;;;;;;4947371;28;20038;-83
2023/09/14 11:44:06;;;;;;;1.38;0.40;;;20.90;99.90;;;;;;4964914;28;20046;-84
2023/09/14 11:46:37;;;;;;;2.35;0.50;;;21.20;99.90;;;;;;4957742;28;20076;-84
2023/09/14 11:49:04;;;;;;;1.88;0.40;;;21.30;99.90;;;;;;4945785;28;20484;-81
2023/09/14 11:51:30;;;;;;;4.25;0.40;;;20.80;99.90;;;;;;4958658;28;20118;-83
2023/09/14 11:53:58;;;;;;;1.90;0.50;;;20.70;99.90;;;;;;4959198;28;20043;-82
2023/09/14 11:56:28;;;;;;;1.90;0.40;;;20.90;99.90;;;;;;4964425;28;20031;-81
2023/09/14 11:58:58;;;;;;;1.92;0.40;;;20.70;99.90;;;;;;4960966;28;20031;-85
2023/09/14 12:01:25;;;;;;;1.67;0.50;;;20.30;99.90;;;;;;4936707;28;20031;-83
2023/09/14 12:03:51;;;;;;;2.88;0.50;;;19.70;99.90;;;;;;4958741;28;20050;-81
2023/09/14 12:06:17;;;;;;;3.67;0.77;;;19.50;99.90;;;;;;4963665;28;20482;-81
2023/09/14 12:08:49;;;;;;;2.53;0.50;;;19.50;99.90;;;;;;4942453;28;20116;-82
2023/09/14 12:11:16;;;;;;;1.08;0.40;;;19.40;99.90;;;;;;4964089;28;20073;-82
2023/09/14 12:13:52;;;;;;;1.60;0.50;;;19.50;99.90;;;;;;4943942;28;20043;-81
2023/09/14 12:16:21;;;;;;;1.92;0.50;;;19.70;99.90;;;;;;4962768;28;20034;-83
2023/09/14 12:18:48;;;;;;;1.08;0.40;;;20.10;99.90;;;;;;4944018;28;20039;-82
2023/09/14 12:21:14;;;;;;;1.40;0.40;;;20.50;99.90;;;;;;4956283;28;20053;-85
2023/09/14 12:23:42;;;;;;;2.20;0.60;;;20.90;99.90;;;;;;4975165;28;20050;-82
2023/09/14 12:26:12;;;;;;;2.58;0.60;;;20.90;99.90;;;;;;4963177;28;20215;-81
2023/09/14 12:28:38;;;;;;;2.75;0.50;;;21.30;99.90;;;;;;4961611;28;20035;-84
2023/09/14 12:31:04;;;;;;;1.50;0.40;;;22.10;99.90;;;;;;4965791;28;20031;-82
2023/09/14 12:33:30;;;;;;;1.27;0.40;;;22.30;99.90;;;;;;4946613;28;20043;-83
2023/09/14 12:35:57;;;;;;;2.58;0.40;;;22.40;99.90;;;;;;4962680;28;20467;-80
2023/09/14 12:38:23;;;;;;;2.00;0.40;;;22.40;99.90;;;;;;4945755;28;20045;-84
2023/09/14 12:40:50;;;;;;;1.77;0.40;;;22.20;99.90;;;;;;4963415;28;20027;-82
2023/09/14 12:43:17;;;;;;;2.08;0.40;;;21.90;99.90;;;;;;4957092;28;20038;-80
2023/09/14 12:45:43;;;;;;;1.58;0.40;;;21.60;99.90;;;;;;4945917;28;20114;-84
2023/09/14 12:48:09;;;;;;;1.20;0.40;;;21.10;99.90;;;;;;4961257;28;21554;-80